Terminal Aerodrome Forecast
Issued by NWS

Home | Current Version | Previous Version | Text Only | Print | Product List | Glossary On
Versions: 1 2 3 4 5 6 7 8 9 10 11 12 13 14
000
FTUS41 KBTV 231124
TAFMSS
TAF
KMSS 231124Z 2312/2412 25007KT P6SM FEW050 SCT200
     FM231600 28010G18KT P6SM VCSH SCT045 BKN080
     FM232000 31010G18KT 4SM SHRA BR BKN045 BKN070
     FM232200 32008KT P6SM VCSH FEW035 SCT120
     FM240000 31007KT P6SM SCT200
     FM240400 VRB03KT P6SM SKC=

USA.gov is the U.S. government's official web portal to all federal, state and local government web resources and services.